sensor_id;sensor_type;location;lat;lon;timestamp;temperature;humidity
5476;DHT22;2760;50.000;9.194;2022-07-23T00:02:05;22.90;99.90
5476;DHT22;2760;50.000;9.194;2022-07-23T00:07:00;22.80;99.90
5476;DHT22;2760;50.000;9.194;2022-07-23T00:14:23;22.70;99.90
5476;DHT22;2760;50.000;9.194;2022-07-23T00:16:50;22.50;99.90
5476;DHT22;2760;50.000;9.194;2022-07-23T00:19:19;22.50;99.90
5476;DHT22;2760;50.000;9.194;2022-07-23T00:26:40;22.30;99.90
5476;DHT22;2760;50.000;9.194;2022-07-23T00:34:02;22.10;99.90
5476;DHT22;2760;50.000;9.194;2022-07-23T00:36:30;22.20;99.90
5476;DHT22;2760;50.000;9.194;2022-07-23T00:38:57;22.30;99.90
5476;DHT22;2760;50.000;9.194;2022-07-23T00:41:24;22.10;99.90
5476;DHT22;2760;50.000;9.194;2022-07-23T00:46:19;22.20;99.90
5476;DHT22;2760;50.000;9.194;2022-07-23T00:48:47;21.90;99.90
5476;DHT22;2760;50.000;9.194;2022-07-23T00:51:15;21.80;99.90
5476;DHT22;2760;50.000;9.194;2022-07-23T00:53:44;22.00;99.90
5476;DHT22;2760;50.000;9.194;2022-07-23T00:56:11;22.10;99.90
5476;DHT22;2760;50.000;9.194;2022-07-23T01:01:06;22.10;99.90
5476;DHT22;2760;50.000;9.194;2022-07-23T01:03:34;21.90;99.90
5476;DHT22;2760;50.000;9.194;2022-07-23T01:08:29;21.80;99.90
5476;DHT22;2760;50.000;9.194;2022-07-23T01:10:58;21.80;99.90
5476;DHT22;2760;50.000;9.194;2022-07-23T01:15:54;21.90;99.90
5476;DHT22;2760;50.000;9.194;2022-07-23T01:18:20;21.50;99.90
5476;DHT22;2760;50.000;9.194;2022-07-23T01:23:17;21.40;99.90
5476;DHT22;2760;50.000;9.194;2022-07-23T01:25:52;21.50;99.90
5476;DHT22;2760;50.000;9.194;2022-07-23T01:40:43;22.00;99.90
5476;DHT22;2760;50.000;9.194;2022-07-23T01:48:07;21.70;99.90
5476;DHT22;2760;50.000;9.194;2022-07-23T01:50:37;21.60;99.90
5476;DHT22;2760;50.000;9.194;2022-07-23T01:55:51;21.80;99.90
5476;DHT22;2760;50.000;9.194;2022-07-23T02:05:41;21.90;99.90
5476;DHT22;2760;50.000;9.194;2022-07-23T02:13:05;21.80;99.90
5476;DHT22;2760;50.000;9.194;2022-07-23T02:15:33;21.80;99.90
5476;DHT22;2760;50.000;9.194;2022-07-23T02:18:00;21.70;99.90
5476;DHT22;2760;50.000;9.194;2022-07-23T02:30:25;21.30;99.90
5476;DHT22;2760;50.000;9.194;2022-07-23T02:32:53;21.20;99.90
5476;DHT22;2760;50.000;9.194;2022-07-23T02:35:20;21.10;99.90
5476;DHT22;2760;50.000;9.194;2022-07-23T02:37:47;21.20;99.90
5476;DHT22;2760;50.000;9.194;2022-07-23T02:40:15;21.30;99.90
5476;DHT22;2760;50.000;9.194;2022-07-23T02:45:10;21.40;99.90
5476;DHT22;2760;50.000;9.194;2022-07-23T02:47:40;21.50;99.90
5476;DHT22;2760;50.000;9.194;2022-07-23T03:04:58;21.50;99.90
5476;DHT22;2760;50.000;9.194;2022-07-23T03:14:50;21.50;99.90
5476;DHT22;2760;50.000;9.194;2022-07-23T03:17:17;21.30;99.90
5476;DHT22;2760;50.000;9.194;2022-07-23T03:19:44;21.30;99.90
5476;DHT22;2760;50.000;9.194;2022-07-23T03:22:12;21.10;99.90
5476;DHT22;2760;50.000;9.194;2022-07-23T03:24:39;20.90;99.90
5476;DHT22;2760;50.000;9.194;2022-07-23T03:27:32;20.80;99.90
5476;DHT22;2760;50.000;9.194;2022-07-23T03:30:00;20.90;99.90
5476;DHT22;2760;50.000;9.194;2022-07-23T03:37:24;20.80;99.90
5476;DHT22;2760;50.000;9.194;2022-07-23T03:54:39;21.00;99.90
5476;DHT22;2760;50.000;9.194;2022-07-23T03:57:06;20.80;99.90
5476;DHT22;2760;50.000;9.194;2022-07-23T03:59:33;21.00;99.90
5476;DHT22;2760;50.000;9.194;2022-07-23T04:02:00;21.10;99.90
5476;DHT22;2760;50.000;9.194;2022-07-23T04:04:30;21.00;99.90
5476;DHT22;2760;50.000;9.194;2022-07-23T04:06:57;20.90;99.90
5476;DHT22;2760;50.000;9.194;2022-07-23T04:09:30;20.70;99.90
5476;DHT22;2760;50.000;9.194;2022-07-23T04:11:59;20.70;99.90
5476;DHT22;2760;50.000;9.194;2022-07-23T04:19:21;20.90;99.90
5476;DHT22;2760;50.000;9.194;2022-07-23T04:26:54;20.90;99.90
5476;DHT22;2760;50.000;9.194;2022-07-23T04:29:23;20.80;99.90
5476;DHT22;2760;50.000;9.194;2022-07-23T04:46:38;20.70;99.90
5476;DHT22;2760;50.000;9.194;2022-07-23T04:56:28;21.00;99.90
5476;DHT22;2760;50.000;9.194;2022-07-23T04:58:55;18.70;99.90
5476;DHT22;2760;50.000;9.194;2022-07-23T05:01:22;20.90;99.90
5476;DHT22;2760;50.000;9.194;2022-07-23T05:03:51;21.00;99.90
5476;DHT22;2760;50.000;9.194;2022-07-23T05:06:18;21.10;99.90
5476;DHT22;2760;50.000;9.194;2022-07-23T05:08:46;21.00;99.90
5476;DHT22;2760;50.000;9.194;2022-07-23T05:11:13;21.00;99.90
5476;DHT22;2760;50.000;9.194;2022-07-23T05:13:40;21.20;99.90
5476;DHT22;2760;50.000;9.194;2022-07-23T05:16:08;21.00;99.90
5476;DHT22;2760;50.000;9.194;2022-07-23T05:18:36;20.90;99.90
5476;DHT22;2760;50.000;9.194;2022-07-23T05:21:04;20.90;99.90
5476;DHT22;2760;50.000;9.194;2022-07-23T05:23:33;20.80;99.90
5476;DHT22;2760;50.000;9.194;2022-07-23T05:26:00;20.90;99.90
5476;DHT22;2760;50.000;9.194;2022-07-23T05:28:29;21.10;99.90
5476;DHT22;2760;50.000;9.194;2022-07-23T05:30:57;19.00;99.90
5476;DHT22;2760;50.000;9.194;2022-07-23T05:33:24;21.50;99.90
5476;DHT22;2760;50.000;9.194;2022-07-23T05:35:52;21.50;99.90
5476;DHT22;2760;50.000;9.194;2022-07-23T05:38:30;21.80;99.90
5476;DHT22;2760;50.000;9.194;2022-07-23T05:41:00;21.60;99.90
5476;DHT22;2760;50.000;9.194;2022-07-23T05:43:28;21.20;99.90
5476;DHT22;2760;50.000;9.194;2022-07-23T05:45:57;21.10;99.90
5476;DHT22;2760;50.000;9.194;2022-07-23T05:53:34;21.20;99.90
5476;DHT22;2760;50.000;9.194;2022-07-23T06:03:39;21.20;99.90
5476;DHT22;2760;50.000;9.194;2022-07-23T06:06:06;21.20;99.90
5476;DHT22;2760;50.000;9.194;2022-07-23T06:08:35;21.20;99.90
5476;DHT22;2760;50.000;9.194;2022-07-23T06:25:49;21.60;99.90
5476;DHT22;2760;50.000;9.194;2022-07-23T06:43:03;21.50;99.90
5476;DHT22;2760;50.000;9.194;2022-07-23T07:00:22;21.50;99.90
5476;DHT22;2760;50.000;9.194;2022-07-23T07:02:53;21.30;99.90
5476;DHT22;2760;50.000;9.194;2022-07-23T07:05:20;21.40;99.90
5476;DHT22;2760;50.000;9.194;2022-07-23T07:07:49;21.30;99.90
5476;DHT22;2760;50.000;9.194;2022-07-23T07:12:43;21.40;99.90
5476;DHT22;2760;50.000;9.194;2022-07-23T07:17:39;21.60;99.90
5476;DHT22;2760;50.000;9.194;2022-07-23T07:20:09;21.90;99.90
5476;DHT22;2760;50.000;9.194;2022-07-23T07:22:36;22.30;99.90
5476;DHT22;2760;50.000;9.194;2022-07-23T07:25:04;22.50;99.90
5476;DHT22;2760;50.000;9.194;2022-07-23T07:27:32;22.60;99.90
5476;DHT22;2760;50.000;9.194;2022-07-23T07:29:59;23.10;99.90
5476;DHT22;2760;50.000;9.194;2022-07-23T07:32:25;23.20;99.90
5476;DHT22;2760;50.000;9.194;2022-07-23T07:34:54;23.50;99.90
5476;DHT22;2760;50.000;9.194;2022-07-23T07:37:21;23.60;99.90
5476;DHT22;2760;50.000;9.194;2022-07-23T07:39:48;24.00;99.90
5476;DHT22;2760;50.000;9.194;2022-07-23T07:42:15;23.80;99.90
5476;DHT22;2760;50.000;9.194;2022-07-23T07:44:42;23.10;99.90
5476;DHT22;2760;50.000;9.194;2022-07-23T07:47:09;22.70;99.90
5476;DHT22;2760;50.000;9.194;2022-07-23T07:49:36;24.60;99.90
5476;DHT22;2760;50.000;9.194;2022-07-23T07:52:05;24.70;99.90
5476;DHT22;2760;50.000;9.194;2022-07-23T07:54:33;26.20;99.90
5476;DHT22;2760;50.000;9.194;2022-07-23T07:57:00;24.20;99.90
5476;DHT22;2760;50.000;9.194;2022-07-23T07:59:27;24.30;99.90
5476;DHT22;2760;50.000;9.194;2022-07-23T08:01:55;24.90;99.90
5476;DHT22;2760;50.000;9.194;2022-07-23T08:04:22;25.80;99.90
5476;DHT22;2760;50.000;9.194;2022-07-23T08:06:49;24.80;99.90
5476;DHT22;2760;50.000;9.194;2022-07-23T08:09:18;25.30;99.90
5476;DHT22;2760;50.000;9.194;2022-07-23T08:11:45;25.70;99.90
5476;DHT22;2760;50.000;9.194;2022-07-23T08:14:12;25.50;99.90
5476;DHT22;2760;50.000;9.194;2022-07-23T08:16:39;25.90;99.90
5476;DHT22;2760;50.000;9.194;2022-07-23T08:19:06;26.20;99.90
5476;DHT22;2760;50.000;9.194;2022-07-23T08:21:33;26.30;99.90
5476;DHT22;2760;50.000;9.194;2022-07-23T08:24:00;26.10;99.90
5476;DHT22;2760;50.000;9.194;2022-07-23T08:26:29;26.40;99.90
5476;DHT22;2760;50.000;9.194;2022-07-23T08:28:56;26.40;99.90
5476;DHT22;2760;50.000;9.194;2022-07-23T08:31:23;26.40;99.90
5476;DHT22;2760;50.000;9.194;2022-07-23T08:33:50;26.40;99.90
5476;DHT22;2760;50.000;9.194;2022-07-23T08:36:18;25.20;99.90
5476;DHT22;2760;50.000;9.194;2022-07-23T08:38:45;26.60;99.90
5476;DHT22;2760;50.000;9.194;2022-07-23T08:41:12;26.90;99.90
5476;DHT22;2760;50.000;9.194;2022-07-23T08:43:41;27.00;99.90
5476;DHT22;2760;50.000;9.194;2022-07-23T08:46:13;26.50;99.90
5476;DHT22;2760;50.000;9.194;2022-07-23T08:48:51;26.60;99.90
5476;DHT22;2760;50.000;9.194;2022-07-23T08:51:27;26.30;99.90
5476;DHT22;2760;50.000;9.194;2022-07-23T08:53:56;26.60;99.90
5476;DHT22;2760;50.000;9.194;2022-07-23T08:56:23;26.80;99.90
5476;DHT22;2760;50.000;9.194;2022-07-23T08:58:53;26.90;99.90
5476;DHT22;2760;50.000;9.194;2022-07-23T09:01:20;27.00;99.90
5476;DHT22;2760;50.000;9.194;2022-07-23T09:03:47;27.30;99.90
5476;DHT22;2760;50.000;9.194;2022-07-23T09:06:14;27.60;99.90
5476;DHT22;2760;50.000;9.194;2022-07-23T09:08:42;27.30;99.90
5476;DHT22;2760;50.000;9.194;2022-07-23T09:11:12;26.70;99.90
5476;DHT22;2760;50.000;9.194;2022-07-23T09:13:42;27.80;99.90
5476;DHT22;2760;50.000;9.194;2022-07-23T09:16:13;28.00;99.70
5476;DHT22;2760;50.000;9.194;2022-07-23T09:18:43;27.60;99.90
5476;DHT22;2760;50.000;9.194;2022-07-23T09:21:19;27.90;99.70
5476;DHT22;2760;50.000;9.194;2022-07-23T09:23:50;28.50;98.70
5476;DHT22;2760;50.000;9.194;2022-07-23T09:26:20;28.60;99.20
5476;DHT22;2760;50.000;9.194;2022-07-23T09:28:53;28.50;98.20
5476;DHT22;2760;50.000;9.194;2022-07-23T09:31:23;28.90;98.00
5476;DHT22;2760;50.000;9.194;2022-07-23T09:34:07;28.80;98.90
5476;DHT22;2760;50.000;9.194;2022-07-23T09:36:35;28.60;98.40
5476;DHT22;2760;50.000;9.194;2022-07-23T09:39:02;28.50;98.10
5476;DHT22;2760;50.000;9.194;2022-07-23T09:41:35;28.50;98.50
5476;DHT22;2760;50.000;9.194;2022-07-23T09:44:07;28.80;98.60
5476;DHT22;2760;50.000;9.194;2022-07-23T09:46:37;28.80;97.80
5476;DHT22;2760;50.000;9.194;2022-07-23T09:49:17;28.40;98.20
5476;DHT22;2760;50.000;9.194;2022-07-23T09:51:47;29.60;98.90
5476;DHT22;2760;50.000;9.194;2022-07-23T09:54:27;28.60;97.90
5476;DHT22;2760;50.000;9.194;2022-07-23T09:56:57;28.80;97.50
5476;DHT22;2760;50.000;9.194;2022-07-23T09:59:29;28.60;97.70
5476;DHT22;2760;50.000;9.194;2022-07-23T10:01:59;29.10;98.20
5476;DHT22;2760;50.000;9.194;2022-07-23T10:04:28;29.20;97.70
5476;DHT22;2760;50.000;9.194;2022-07-23T10:07:13;29.40;97.30
5476;DHT22;2760;50.000;9.194;2022-07-23T10:10:03;29.20;96.90
5476;DHT22;2760;50.000;9.194;2022-07-23T10:12:31;29.30;97.00
5476;DHT22;2760;50.000;9.194;2022-07-23T10:15:15;28.80;96.80
5476;DHT22;2760;50.000;9.194;2022-07-23T10:17:44;28.70;97.40
5476;DHT22;2760;50.000;9.194;2022-07-23T10:20:11;27.60;95.40
5476;DHT22;2760;50.000;9.194;2022-07-23T10:22:42;29.70;95.50
5476;DHT22;2760;50.000;9.194;2022-07-23T10:25:20;29.10;96.10
5476;DHT22;2760;50.000;9.194;2022-07-23T10:28:04;27.60;95.50
5476;DHT22;2760;50.000;9.194;2022-07-23T10:30:40;29.00;96.30
5476;DHT22;2760;50.000;9.194;2022-07-23T10:33:21;29.30;95.90
5476;DHT22;2760;50.000;9.194;2022-07-23T10:36:01;29.40;95.50
5476;DHT22;2760;50.000;9.194;2022-07-23T10:38:32;29.20;95.20
5476;DHT22;2760;50.000;9.194;2022-07-23T10:41:03;28.50;95.50
5476;DHT22;2760;50.000;9.194;2022-07-23T10:43:31;28.80;95.70
5476;DHT22;2760;50.000;9.194;2022-07-23T10:46:22;29.70;95.60
5476;DHT22;2760;50.000;9.194;2022-07-23T10:49:21;29.80;95.00
5476;DHT22;2760;50.000;9.194;2022-07-23T10:52:17;29.70;94.60
5476;DHT22;2760;50.000;9.194;2022-07-23T10:54:46;29.50;94.70
5476;DHT22;2760;50.000;9.194;2022-07-23T10:57:14;29.60;95.10
5476;DHT22;2760;50.000;9.194;2022-07-23T11:02:58;29.60;94.30
5476;DHT22;2760;50.000;9.194;2022-07-23T11:05:40;29.20;94.30
5476;DHT22;2760;50.000;9.194;2022-07-23T11:08:13;29.10;94.50
5476;DHT22;2760;50.000;9.194;2022-07-23T11:10:47;29.30;94.90
5476;DHT22;2760;50.000;9.194;2022-07-23T11:13:32;29.30;94.90
5476;DHT22;2760;50.000;9.194;2022-07-23T11:16:12;29.40;93.90
5476;DHT22;2760;50.000;9.194;2022-07-23T11:18:55;30.70;94.60
5476;DHT22;2760;50.000;9.194;2022-07-23T11:21:42;31.20;95.20
5476;DHT22;2760;50.000;9.194;2022-07-23T11:24:12;29.20;94.80
5476;DHT22;2760;50.000;9.194;2022-07-23T11:26:48;29.10;94.70
5476;DHT22;2760;50.000;9.194;2022-07-23T11:29:46;28.60;94.80
5476;DHT22;2760;50.000;9.194;2022-07-23T11:32:36;28.90;96.00
5476;DHT22;2760;50.000;9.194;2022-07-23T11:35:19;28.10;95.70
5476;DHT22;2760;50.000;9.194;2022-07-23T11:37:48;27.80;96.20
5476;DHT22;2760;50.000;9.194;2022-07-23T11:40:20;27.80;96.60
5476;DHT22;2760;50.000;9.194;2022-07-23T11:42:55;28.20;96.50
5476;DHT22;2760;50.000;9.194;2022-07-23T11:45:24;28.60;94.70
5476;DHT22;2760;50.000;9.194;2022-07-23T11:47:51;28.50;94.90
5476;DHT22;2760;50.000;9.194;2022-07-23T11:50:18;28.60;94.50
5476;DHT22;2760;50.000;9.194;2022-07-23T11:52:45;28.80;94.30
5476;DHT22;2760;50.000;9.194;2022-07-23T11:55:13;28.30;94.60
5476;DHT22;2760;50.000;9.194;2022-07-23T11:57:42;28.30;94.50
5476;DHT22;2760;50.000;9.194;2022-07-23T12:00:11;27.70;94.90
5476;DHT22;2760;50.000;9.194;2022-07-23T12:02:42;28.10;94.70
5476;DHT22;2760;50.000;9.194;2022-07-23T12:05:12;28.30;94.70
5476;DHT22;2760;50.000;9.194;2022-07-23T12:07:40;28.30;94.20
5476;DHT22;2760;50.000;9.194;2022-07-23T12:10:15;29.00;94.40
5476;DHT22;2760;50.000;9.194;2022-07-23T12:12:44;29.70;92.00
5476;DHT22;2760;50.000;9.194;2022-07-23T12:15:13;29.90;92.70
5476;DHT22;2760;50.000;9.194;2022-07-23T12:17:42;30.30;91.20
5476;DHT22;2760;50.000;9.194;2022-07-23T12:20:13;30.30;91.10
5476;DHT22;2760;50.000;9.194;2022-07-23T12:22:42;29.00;89.20
5476;DHT22;2760;50.000;9.194;2022-07-23T12:25:15;30.10;90.70
5476;DHT22;2760;50.000;9.194;2022-07-23T12:27:43;30.60;90.00
5476;DHT22;2760;50.000;9.194;2022-07-23T12:30:22;31.00;88.70
5476;DHT22;2760;50.000;9.194;2022-07-23T12:32:51;31.00;86.90
5476;DHT22;2760;50.000;9.194;2022-07-23T12:35:18;31.10;88.20
5476;DHT22;2760;50.000;9.194;2022-07-23T12:37:47;31.30;87.70
5476;DHT22;2760;50.000;9.194;2022-07-23T12:40:25;31.50;86.00
5476;DHT22;2760;50.000;9.194;2022-07-23T12:42:55;32.90;87.90
5476;DHT22;2760;50.000;9.194;2022-07-23T12:45:24;31.20;86.10
5476;DHT22;2760;50.000;9.194;2022-07-23T12:48:03;30.90;86.70
5476;DHT22;2760;50.000;9.194;2022-07-23T12:50:43;31.10;86.70
5476;DHT22;2760;50.000;9.194;2022-07-23T12:53:16;32.00;85.80
5476;DHT22;2760;50.000;9.194;2022-07-23T12:55:46;32.70;83.30
5476;DHT22;2760;50.000;9.194;2022-07-23T12:58:15;32.40;82.70
5476;DHT22;2760;50.000;9.194;2022-07-23T13:01:01;32.40;83.30
5476;DHT22;2760;50.000;9.194;2022-07-23T13:03:32;32.40;80.70
5476;DHT22;2760;50.000;9.194;2022-07-23T13:06:00;32.70;80.50
5476;DHT22;2760;50.000;9.194;2022-07-23T13:08:29;31.80;82.30
5476;DHT22;2760;50.000;9.194;2022-07-23T13:11:02;32.00;80.40
5476;DHT22;2760;50.000;9.194;2022-07-23T13:13:32;30.90;81.80
5476;DHT22;2760;50.000;9.194;2022-07-23T13:16:00;31.60;82.70
5476;DHT22;2760;50.000;9.194;2022-07-23T13:18:27;31.80;81.60
5476;DHT22;2760;50.000;9.194;2022-07-23T13:20:55;32.40;80.40
5476;DHT22;2760;50.000;9.194;2022-07-23T13:23:22;32.60;80.10
5476;DHT22;2760;50.000;9.194;2022-07-23T13:25:50;32.00;79.20
5476;DHT22;2760;50.000;9.194;2022-07-23T13:28:19;31.30;78.90
5476;DHT22;2760;50.000;9.194;2022-07-23T13:30:47;32.50;79.30
5476;DHT22;2760;50.000;9.194;2022-07-23T13:33:16;32.50;79.30
5476;DHT22;2760;50.000;9.194;2022-07-23T13:35:43;32.70;78.30
5476;DHT22;2760;50.000;9.194;2022-07-23T13:38:11;33.20;77.60
5476;DHT22;2760;50.000;9.194;2022-07-23T13:40:40;33.40;76.20
5476;DHT22;2760;50.000;9.194;2022-07-23T13:43:10;33.10;77.10
5476;DHT22;2760;50.000;9.194;2022-07-23T13:45:38;33.50;77.40
5476;DHT22;2760;50.000;9.194;2022-07-23T13:48:08;33.40;76.70
5476;DHT22;2760;50.000;9.194;2022-07-23T13:50:35;33.70;75.80
5476;DHT22;2760;50.000;9.194;2022-07-23T13:53:03;32.70;75.60
5476;DHT22;2760;50.000;9.194;2022-07-23T13:55:32;32.80;79.10
5476;DHT22;2760;50.000;9.194;2022-07-23T13:58:00;33.20;76.90
5476;DHT22;2760;50.000;9.194;2022-07-23T14:00:28;33.00;75.70
5476;DHT22;2760;50.000;9.194;2022-07-23T14:02:57;32.30;77.30
5476;DHT22;2760;50.000;9.194;2022-07-23T14:05:25;31.80;77.80
5476;DHT22;2760;50.000;9.194;2022-07-23T14:07:52;32.20;79.00
5476;DHT22;2760;50.000;9.194;2022-07-23T14:10:21;31.60;79.20
5476;DHT22;2760;50.000;9.194;2022-07-23T14:12:50;31.80;79.60
5476;DHT22;2760;50.000;9.194;2022-07-23T14:15:19;32.50;79.00
5476;DHT22;2760;50.000;9.194;2022-07-23T14:17:47;32.20;76.50
5476;DHT22;2760;50.000;9.194;2022-07-23T14:20:15;31.70;78.70
5476;DHT22;2760;50.000;9.194;2022-07-23T14:22:42;30.70;78.20
5476;DHT22;2760;50.000;9.194;2022-07-23T14:25:10;30.00;79.40
5476;DHT22;2760;50.000;9.194;2022-07-23T14:27:37;30.10;80.30
5476;DHT22;2760;50.000;9.194;2022-07-23T14:30:07;29.90;80.50
5476;DHT22;2760;50.000;9.194;2022-07-23T14:32:34;30.30;80.10
5476;DHT22;2760;50.000;9.194;2022-07-23T14:35:02;30.40;80.00
5476;DHT22;2760;50.000;9.194;2022-07-23T14:37:30;30.00;79.80
5476;DHT22;2760;50.000;9.194;2022-07-23T14:39:57;30.10;80.70
5476;DHT22;2760;50.000;9.194;2022-07-23T14:42:26;30.70;80.80
5476;DHT22;2760;50.000;9.194;2022-07-23T14:44:53;30.60;79.20
5476;DHT22;2760;50.000;9.194;2022-07-23T14:47:20;30.70;79.10
5476;DHT22;2760;50.000;9.194;2022-07-23T14:49:47;29.90;80.20
5476;DHT22;2760;50.000;9.194;2022-07-23T14:52:14;29.40;80.30
5476;DHT22;2760;50.000;9.194;2022-07-23T14:54:43;29.60;81.40
5476;DHT22;2760;50.000;9.194;2022-07-23T14:57:10;29.70;80.10
5476;DHT22;2760;50.000;9.194;2022-07-23T14:59:37;29.20;80.90
5476;DHT22;2760;50.000;9.194;2022-07-23T15:02:04;29.40;81.60
5476;DHT22;2760;50.000;9.194;2022-07-23T15:04:31;29.70;80.70
5476;DHT22;2760;50.000;9.194;2022-07-23T15:06:58;30.00;81.20
5476;DHT22;2760;50.000;9.194;2022-07-23T15:09:25;30.20;80.10
5476;DHT22;2760;50.000;9.194;2022-07-23T15:11:53;30.00;79.90
5476;DHT22;2760;50.000;9.194;2022-07-23T15:14:20;29.70;80.00
5476;DHT22;2760;50.000;9.194;2022-07-23T15:16:47;29.80;79.60
5476;DHT22;2760;50.000;9.194;2022-07-23T15:19:14;29.60;80.10
5476;DHT22;2760;50.000;9.194;2022-07-23T15:21:41;29.70;79.10
5476;DHT22;2760;50.000;9.194;2022-07-23T15:24:08;29.80;79.30
5476;DHT22;2760;50.000;9.194;2022-07-23T15:26:35;29.90;79.60
5476;DHT22;2760;50.000;9.194;2022-07-23T15:29:04;29.90;79.70
5476;DHT22;2760;50.000;9.194;2022-07-23T15:31:32;30.10;79.70
5476;DHT22;2760;50.000;9.194;2022-07-23T15:33:59;30.20;78.70
5476;DHT22;2760;50.000;9.194;2022-07-23T15:36:26;30.20;77.10
5476;DHT22;2760;50.000;9.194;2022-07-23T15:38:53;30.20;78.50
5476;DHT22;2760;50.000;9.194;2022-07-23T15:41:20;30.60;77.60
5476;DHT22;2760;50.000;9.194;2022-07-23T15:43:47;30.20;77.90
5476;DHT22;2760;50.000;9.194;2022-07-23T15:46:16;30.20;78.80
5476;DHT22;2760;50.000;9.194;2022-07-23T15:48:44;29.80;78.50
5476;DHT22;2760;50.000;9.194;2022-07-23T15:51:11;29.70;79.40
5476;DHT22;2760;50.000;9.194;2022-07-23T15:53:38;27.30;78.40
5476;DHT22;2760;50.000;9.194;2022-07-23T15:56:06;30.10;79.00
5476;DHT22;2760;50.000;9.194;2022-07-23T15:58:33;30.10;78.90
5476;DHT22;2760;50.000;9.194;2022-07-23T16:01:00;29.90;79.40
5476;DHT22;2760;50.000;9.194;2022-07-23T16:03:30;30.20;79.80
5476;DHT22;2760;50.000;9.194;2022-07-23T16:05:57;30.00;79.70
5476;DHT22;2760;50.000;9.194;2022-07-23T16:08:27;29.60;80.70
5476;DHT22;2760;50.000;9.194;2022-07-23T16:10:54;29.60;82.00
5476;DHT22;2760;50.000;9.194;2022-07-23T16:13:24;29.90;80.30
5476;DHT22;2760;50.000;9.194;2022-07-23T16:15:51;30.10;81.00
5476;DHT22;2760;50.000;9.194;2022-07-23T16:18:19;30.20;79.10
5476;DHT22;2760;50.000;9.194;2022-07-23T16:20:49;30.30;78.90
5476;DHT22;2760;50.000;9.194;2022-07-23T16:23:17;30.10;79.30
5476;DHT22;2760;50.000;9.194;2022-07-23T16:25:44;30.20;78.90
5476;DHT22;2760;50.000;9.194;2022-07-23T16:28:11;30.20;79.20
5476;DHT22;2760;50.000;9.194;2022-07-23T16:30:39;29.80;80.60
5476;DHT22;2760;50.000;9.194;2022-07-23T16:33:06;29.50;79.30
5476;DHT22;2760;50.000;9.194;2022-07-23T16:35:33;29.30;81.30
5476;DHT22;2760;50.000;9.194;2022-07-23T16:38:02;29.40;80.80
5476;DHT22;2760;50.000;9.194;2022-07-23T16:40:29;29.40;80.60
5476;DHT22;2760;50.000;9.194;2022-07-23T16:42:57;29.30;81.70
5476;DHT22;2760;50.000;9.194;2022-07-23T16:45:24;29.70;81.40
5476;DHT22;2760;50.000;9.194;2022-07-23T16:47:52;29.50;80.00
5476;DHT22;2760;50.000;9.194;2022-07-23T16:50:19;29.40;80.80
5476;DHT22;2760;50.000;9.194;2022-07-23T16:52:46;29.40;80.10
5476;DHT22;2760;50.000;9.194;2022-07-23T16:55:14;29.10;80.00
5476;DHT22;2760;50.000;9.194;2022-07-23T17:00:11;29.00;80.10
5476;DHT22;2760;50.000;9.194;2022-07-23T17:02:39;29.00;80.50
5476;DHT22;2760;50.000;9.194;2022-07-23T17:05:08;29.10;81.10
5476;DHT22;2760;50.000;9.194;2022-07-23T17:07:35;28.80;81.20
5476;DHT22;2760;50.000;9.194;2022-07-23T17:10:02;31.10;84.30
5476;DHT22;2760;50.000;9.194;2022-07-23T17:12:31;28.80;82.50
5476;DHT22;2760;50.000;9.194;2022-07-23T17:14:58;28.80;83.00
5476;DHT22;2760;50.000;9.194;2022-07-23T17:17:25;28.70;82.40
5476;DHT22;2760;50.000;9.194;2022-07-23T17:19:52;28.70;83.10
5476;DHT22;2760;50.000;9.194;2022-07-23T17:22:19;28.70;83.80
5476;DHT22;2760;50.000;9.194;2022-07-23T17:24:46;28.70;82.70
5476;DHT22;2760;50.000;9.194;2022-07-23T17:27:14;28.60;83.30
5476;DHT22;2760;50.000;9.194;2022-07-23T17:29:42;28.50;84.90
5476;DHT22;2760;50.000;9.194;2022-07-23T17:32:09;28.60;83.80
5476;DHT22;2760;50.000;9.194;2022-07-23T17:34:36;28.50;84.20
5476;DHT22;2760;50.000;9.194;2022-07-23T17:37:04;28.60;83.80
5476;DHT22;2760;50.000;9.194;2022-07-23T17:39:31;28.50;83.70
5476;DHT22;2760;50.000;9.194;2022-07-23T17:41:58;28.60;84.00
5476;DHT22;2760;50.000;9.194;2022-07-23T17:44:25;28.50;82.60
5476;DHT22;2760;50.000;9.194;2022-07-23T17:46:53;28.50;83.30
5476;DHT22;2760;50.000;9.194;2022-07-23T17:49:20;28.50;83.50
5476;DHT22;2760;50.000;9.194;2022-07-23T17:51:48;28.60;83.60
5476;DHT22;2760;50.000;9.194;2022-07-23T17:54:15;28.70;83.70
5476;DHT22;2760;50.000;9.194;2022-07-23T17:56:42;28.60;84.20
5476;DHT22;2760;50.000;9.194;2022-07-23T17:59:09;28.70;83.20
5476;DHT22;2760;50.000;9.194;2022-07-23T18:01:36;28.40;83.40
5476;DHT22;2760;50.000;9.194;2022-07-23T18:04:05;28.20;84.50
5476;DHT22;2760;50.000;9.194;2022-07-23T18:06:43;28.10;84.90
5476;DHT22;2760;50.000;9.194;2022-07-23T18:09:14;28.00;84.40
5476;DHT22;2760;50.000;9.194;2022-07-23T18:11:42;27.90;84.00
5476;DHT22;2760;50.000;9.194;2022-07-23T18:14:10;27.80;83.70
5476;DHT22;2760;50.000;9.194;2022-07-23T18:16:38;28.00;84.40
5476;DHT22;2760;50.000;9.194;2022-07-23T18:19:12;27.90;84.40
5476;DHT22;2760;50.000;9.194;2022-07-23T18:21:39;28.00;84.40
5476;DHT22;2760;50.000;9.194;2022-07-23T18:24:07;28.00;84.30
5476;DHT22;2760;50.000;9.194;2022-07-23T18:26:34;27.90;84.10
5476;DHT22;2760;50.000;9.194;2022-07-23T18:29:01;27.90;84.20
5476;DHT22;2760;50.000;9.194;2022-07-23T18:31:28;27.90;84.60
5476;DHT22;2760;50.000;9.194;2022-07-23T18:33:55;27.80;87.20
5476;DHT22;2760;50.000;9.194;2022-07-23T18:36:24;27.70;85.70
5476;DHT22;2760;50.000;9.194;2022-07-23T18:38:51;27.70;85.40
5476;DHT22;2760;50.000;9.194;2022-07-23T18:41:18;27.60;86.00
5476;DHT22;2760;50.000;9.194;2022-07-23T18:43:45;27.50;86.80
5476;DHT22;2760;50.000;9.194;2022-07-23T18:46:13;27.40;87.70
5476;DHT22;2760;50.000;9.194;2022-07-23T18:48:40;27.20;89.20
5476;DHT22;2760;50.000;9.194;2022-07-23T18:51:08;27.40;88.80
5476;DHT22;2760;50.000;9.194;2022-07-23T18:53:36;27.20;90.60
5476;DHT22;2760;50.000;9.194;2022-07-23T19:03:27;27.10;90.00
5476;DHT22;2760;50.000;9.194;2022-07-23T19:05:54;27.00;90.50
5476;DHT22;2760;50.000;9.194;2022-07-23T19:08:21;27.00;90.30
5476;DHT22;2760;50.000;9.194;2022-07-23T19:10:52;26.70;90.20
5476;DHT22;2760;50.000;9.194;2022-07-23T19:20:52;26.00;91.30
5476;DHT22;2760;50.000;9.194;2022-07-23T19:25:49;25.90;91.80
5476;DHT22;2760;50.000;9.194;2022-07-23T19:28:19;25.90;92.40
5476;DHT22;2760;50.000;9.194;2022-07-23T19:40:42;25.80;93.10
5476;DHT22;2760;50.000;9.194;2022-07-23T19:43:11;25.30;94.00
5476;DHT22;2760;50.000;9.194;2022-07-23T19:45:44;25.20;94.40
5476;DHT22;2760;50.000;9.194;2022-07-23T19:48:12;23.70;94.60
5476;DHT22;2760;50.000;9.194;2022-07-23T19:50:39;27.00;96.60
5476;DHT22;2760;50.000;9.194;2022-07-23T20:00:37;24.50;96.20
5476;DHT22;2760;50.000;9.194;2022-07-23T20:03:07;24.30;96.70
5476;DHT22;2760;50.000;9.194;2022-07-23T20:05:36;24.10;97.20
5476;DHT22;2760;50.000;9.194;2022-07-23T20:08:03;24.10;97.60
5476;DHT22;2760;50.000;9.194;2022-07-23T20:10:31;24.30;97.70
5476;DHT22;2760;50.000;9.194;2022-07-23T20:13:04;24.40;97.40
5476;DHT22;2760;50.000;9.194;2022-07-23T20:15:31;24.20;97.60
5476;DHT22;2760;50.000;9.194;2022-07-23T20:18:00;24.20;97.50
5476;DHT22;2760;50.000;9.194;2022-07-23T20:20:28;24.20;97.60
5476;DHT22;2760;50.000;9.194;2022-07-23T20:23:00;22.80;97.30
5476;DHT22;2760;50.000;9.194;2022-07-23T20:27:55;23.90;98.20
5476;DHT22;2760;50.000;9.194;2022-07-23T20:32:52;23.60;98.80